sensor_id;sensor_type;location;lat;lon;timestamp;pressure;altitude;pressure_sealevel;temperature;humidity
6668;BME280;3370;47.712;9.082;2023-02-21T00:01:56;97625.31;;;3.07;91.14
6668;BME280;3370;47.712;9.082;2023-02-21T00:04:41;97623.66;;;2.97;90.13
6668;BME280;3370;47.712;9.082;2023-02-21T00:07:26;97627.09;;;2.88;91.37
6668;BME280;3370;47.712;9.082;2023-02-21T00:12:59;97616.81;;;3.13;90.43
6668;BME280;3370;47.712;9.082;2023-02-21T00:15:44;97607.53;;;3.07;89.91
6668;BME280;3370;47.712;9.082;2023-02-21T00:18:33;97608.38;;;3.06;89.95
6668;BME280;3370;47.712;9.082;2023-02-21T00:21:17;97617.63;;;3.16;89.83
6668;BME280;3370;47.712;9.082;2023-02-21T00:24:02;97607.50;;;3.10;89.99
6668;BME280;3370;47.712;9.082;2023-02-21T00:26:46;97607.53;;;3.01;91.34
6668;BME280;3370;47.712;9.082;2023-02-21T00:29:31;97603.34;;;2.98;90.81
6668;BME280;3370;47.712;9.082;2023-02-21T00:32:15;97601.75;;;2.77;91.09
6668;BME280;3370;47.712;9.082;2023-02-21T00:35:00;97597.53;;;2.76;91.82
6668;BME280;3370;47.712;9.082;2023-02-21T00:37:48;97594.88;;;2.99;91.23
6668;BME280;3370;47.712;9.082;2023-02-21T00:40:32;97591.56;;;2.83;91.29
6668;BME280;3370;47.712;9.082;2023-02-21T00:43:16;97589.03;;;2.83;91.16
6668;BME280;3370;47.712;9.082;2023-02-21T00:46:00;97586.44;;;2.90;90.70
6668;BME280;3370;47.712;9.082;2023-02-21T00:48:45;97591.56;;;2.85;90.64
6668;BME280;3370;47.712;9.082;2023-02-21T00:51:29;97589.03;;;2.85;90.32
6668;BME280;3370;47.712;9.082;2023-02-21T00:54:14;97592.47;;;2.73;90.93
6668;BME280;3370;47.712;9.082;2023-02-21T00:56:58;97590.81;;;2.71;91.36
6668;BME280;3370;47.712;9.082;2023-02-21T00:59:43;97586.56;;;2.71;92.27
6668;BME280;3370;47.712;9.082;2023-02-21T01:02:27;97582.28;;;2.78;91.93
6668;BME280;3370;47.712;9.082;2023-02-21T01:05:11;97576.38;;;2.76;91.49
6668;BME280;3370;47.712;9.082;2023-02-21T01:07:56;97579.72;;;2.85;91.55
6668;BME280;3370;47.712;9.082;2023-02-21T01:10:40;97571.25;;;2.82;91.42
6668;BME280;3370;47.712;9.082;2023-02-21T01:13:24;97570.44;;;2.81;90.90
6668;BME280;3370;47.712;9.082;2023-02-21T01:16:09;97582.31;;;2.76;91.11
6668;BME280;3370;47.712;9.082;2023-02-21T01:18:53;97582.28;;;2.79;91.01
6668;BME280;3370;47.712;9.082;2023-02-21T01:21:37;97581.47;;;2.74;91.56
6668;BME280;3370;47.712;9.082;2023-02-21T01:24:22;97571.31;;;2.69;92.47
6668;BME280;3370;47.712;9.082;2023-02-21T01:27:06;97580.69;;;2.60;93.82
6668;BME280;3370;47.712;9.082;2023-02-21T01:29:50;97577.38;;;2.48;95.32
6668;BME280;3370;47.712;9.082;2023-02-21T01:32:35;97581.56;;;2.49;95.91
6668;BME280;3370;47.712;9.082;2023-02-21T01:35:19;97582.47;;;2.39;96.12
6668;BME280;3370;47.712;9.082;2023-02-21T01:38:03;97584.19;;;2.28;95.44
6668;BME280;3370;47.712;9.082;2023-02-21T01:40:48;97585.94;;;2.17;95.83
6668;BME280;3370;47.712;9.082;2023-02-21T01:43:32;97585.09;;;2.16;96.15
6668;BME280;3370;47.712;9.082;2023-02-21T01:46:19;97587.63;;;2.11;95.91
6668;BME280;3370;47.712;9.082;2023-02-21T01:49:12;97574.13;;;2.06;96.08
6668;BME280;3370;47.712;9.082;2023-02-21T01:51:58;97573.31;;;1.98;94.57
6668;BME280;3370;47.712;9.082;2023-02-21T01:54:49;97564.00;;;2.03;94.47
6668;BME280;3370;47.712;9.082;2023-02-21T01:57:35;97559.78;;;1.93;94.79
6668;BME280;3370;47.712;9.082;2023-02-21T02:00:20;97558.09;;;1.94;94.86
6668;BME280;3370;47.712;9.082;2023-02-21T02:03:09;97548.00;;;1.80;96.17
6668;BME280;3370;47.712;9.082;2023-02-21T02:06:00;97559.78;;;1.95;95.27
6668;BME280;3370;47.712;9.082;2023-02-21T02:08:46;97559.75;;;2.01;95.54
6668;BME280;3370;47.712;9.082;2023-02-21T02:12:05;97561.50;;;1.91;94.74
6668;BME280;3370;47.712;9.082;2023-02-21T02:15:21;97558.91;;;1.97;94.92
6668;BME280;3370;47.712;9.082;2023-02-21T02:33:20;97563.94;;;2.22;92.84
6668;BME280;3370;47.712;9.082;2023-02-21T02:36:34;97565.63;;;2.12;93.74
6668;BME280;3370;47.712;9.082;2023-02-21T02:39:10;97552.22;;;1.87;95.09
6668;BME280;3370;47.712;9.082;2023-02-21T02:42:30;97558.94;;;1.88;95.86
6668;BME280;3370;47.712;9.082;2023-02-21T02:45:13;97550.50;;;1.89;95.04
6668;BME280;3370;47.712;9.082;2023-02-21T02:47:44;97543.78;;;1.72;95.82
6668;BME280;3370;47.712;9.082;2023-02-21T02:50:15;97545.44;;;1.81;95.12
6668;BME280;3370;47.712;9.082;2023-02-21T02:52:59;97538.72;;;1.54;94.46
6668;BME280;3370;47.712;9.082;2023-02-21T02:55:53;97542.97;;;1.49;94.93
6668;BME280;3370;47.712;9.082;2023-02-21T02:58:21;97550.56;;;1.43;94.92
6668;BME280;3370;47.712;9.082;2023-02-21T03:15:26;97534.50;;;1.38;96.81
6668;BME280;3370;47.712;9.082;2023-02-21T03:18:06;97537.06;;;1.30;98.01
6668;BME280;3370;47.712;9.082;2023-02-21T03:20:34;97533.69;;;1.32;98.14
6668;BME280;3370;47.712;9.082;2023-02-21T03:23:02;97536.22;;;1.37;98.28
6668;BME280;3370;47.712;9.082;2023-02-21T03:25:30;97534.53;;;1.44;97.66
6668;BME280;3370;47.712;9.082;2023-02-21T03:27:57;97537.06;;;1.33;96.47
6668;BME280;3370;47.712;9.082;2023-02-21T03:30:25;97534.53;;;1.18;96.64
6668;BME280;3370;47.712;9.082;2023-02-21T03:32:52;97542.97;;;1.24;96.98
6668;BME280;3370;47.712;9.082;2023-02-21T03:35:20;97538.75;;;1.42;96.29
6668;BME280;3370;47.712;9.082;2023-02-21T03:37:50;97540.44;;;1.44;95.72
6668;BME280;3370;47.712;9.082;2023-02-21T03:40:25;97533.69;;;1.42;96.21
6668;BME280;3370;47.712;9.082;2023-02-21T03:42:53;97535.38;;;1.46;96.57
6668;BME280;3370;47.712;9.082;2023-02-21T03:45:20;97530.28;;;1.50;95.93
6668;BME280;3370;47.712;9.082;2023-02-21T03:47:46;97529.44;;;1.48;96.05
6668;BME280;3370;47.712;9.082;2023-02-21T03:50:12;97525.19;;;1.61;95.45
6668;BME280;3370;47.712;9.082;2023-02-21T03:52:38;97532.84;;;1.47;95.32
6668;BME280;3370;47.712;9.082;2023-02-21T03:55:06;97535.34;;;1.43;95.89
6668;BME280;3370;47.712;9.082;2023-02-21T03:57:33;97534.53;;;1.25;97.26
6668;BME280;3370;47.712;9.082;2023-02-21T03:59:59;97534.56;;;1.16;98.64
6668;BME280;3370;47.712;9.082;2023-02-21T04:02:25;97531.16;;;1.20;98.95
6668;BME280;3370;47.712;9.082;2023-02-21T04:04:51;97527.78;;;1.12;99.19
6668;BME280;3370;47.712;9.082;2023-02-21T04:07:19;97528.63;;;1.08;99.64
6668;BME280;3370;47.712;9.082;2023-02-21T04:09:46;97520.16;;;1.00;99.61
6668;BME280;3370;47.712;9.082;2023-02-21T04:12:12;97532.84;;;1.06;99.42
6668;BME280;3370;47.712;9.082;2023-02-21T04:14:38;97533.69;;;0.88;98.75
6668;BME280;3370;47.712;9.082;2023-02-21T04:17:04;97531.97;;;0.87;99.16
6668;BME280;3370;47.712;9.082;2023-02-21T04:19:30;97526.06;;;0.92;99.04
6668;BME280;3370;47.712;9.082;2023-02-21T04:21:56;97521.88;;;1.04;99.00
6668;BME280;3370;47.712;9.082;2023-02-21T04:24:22;97530.28;;;1.01;98.59
6668;BME280;3370;47.712;9.082;2023-02-21T04:26:47;97521.03;;;0.99;99.07
6668;BME280;3370;47.712;9.082;2023-02-21T04:29:13;97522.72;;;0.93;98.57
6668;BME280;3370;47.712;9.082;2023-02-21T04:31:39;97525.25;;;0.86;98.82
6668;BME280;3370;47.712;9.082;2023-02-21T04:34:05;97535.34;;;0.81;99.31
6668;BME280;3370;47.712;9.082;2023-02-21T04:36:31;97526.91;;;0.79;99.34
6668;BME280;3370;47.712;9.082;2023-02-21T04:38:56;97526.09;;;1.00;98.31
6668;BME280;3370;47.712;9.082;2023-02-21T04:41:23;97524.41;;;1.13;93.57
6668;BME280;3370;47.712;9.082;2023-02-21T04:43:49;97526.06;;;0.92;94.58
6668;BME280;3370;47.712;9.082;2023-02-21T04:46:16;97532.84;;;1.01;95.90
6668;BME280;3370;47.712;9.082;2023-02-21T04:48:48;97546.31;;;0.85;97.96
6668;BME280;3370;47.712;9.082;2023-02-21T04:51:17;97542.13;;;0.85;99.51
6668;BME280;3370;47.712;9.082;2023-02-21T04:53:47;97544.63;;;0.76;100.00
6668;BME280;3370;47.712;9.082;2023-02-21T04:56:14;97550.50;;;0.63;98.66
6668;BME280;3370;47.712;9.082;2023-02-21T04:58:42;97550.53;;;0.75;98.52
6668;BME280;3370;47.712;9.082;2023-02-21T05:01:10;97545.50;;;0.78;97.68
6668;BME280;3370;47.712;9.082;2023-02-21T05:03:37;97542.09;;;0.70;97.64
6668;BME280;3370;47.712;9.082;2023-02-21T05:06:03;97546.31;;;0.69;96.41
6668;BME280;3370;47.712;9.082;2023-02-21T05:08:29;97544.59;;;0.67;96.75
6668;BME280;3370;47.712;9.082;2023-02-21T05:10:55;97542.09;;;0.64;96.22
6668;BME280;3370;47.712;9.082;2023-02-21T05:13:21;97538.69;;;0.59;96.35
6668;BME280;3370;47.712;9.082;2023-02-21T05:15:48;97542.09;;;0.76;95.83
6668;BME280;3370;47.712;9.082;2023-02-21T05:18:14;97542.94;;;0.76;95.61
6668;BME280;3370;47.712;9.082;2023-02-21T05:20:48;97538.69;;;0.65;95.93
6668;BME280;3370;47.712;9.082;2023-02-21T05:23:15;97546.25;;;0.49;97.18
6668;BME280;3370;47.712;9.082;2023-02-21T05:25:42;97541.19;;;0.54;97.48
6668;BME280;3370;47.712;9.082;2023-02-21T05:28:08;97537.84;;;0.61;97.33
6668;BME280;3370;47.712;9.082;2023-02-21T05:30:34;97533.63;;;0.65;96.73
6668;BME280;3370;47.712;9.082;2023-02-21T05:33:00;97540.38;;;0.56;97.36
6668;BME280;3370;47.712;9.082;2023-02-21T05:35:26;97534.44;;;0.56;98.08
6668;BME280;3370;47.712;9.082;2023-02-21T05:37:52;97537.00;;;0.57;97.82
6668;BME280;3370;47.712;9.082;2023-02-21T05:40:18;97541.22;;;0.63;97.56
6668;BME280;3370;47.712;9.082;2023-02-21T05:42:44;97533.66;;;0.74;97.77
6668;BME280;3370;47.712;9.082;2023-02-21T05:45:10;97537.84;;;0.69;98.16
6668;BME280;3370;47.712;9.082;2023-02-21T05:47:37;97547.94;;;0.52;99.11
6668;BME280;3370;47.712;9.082;2023-02-21T05:50:04;97544.59;;;0.62;99.36
6668;BME280;3370;47.712;9.082;2023-02-21T05:52:30;97553.91;;;0.68;98.92
6668;BME280;3370;47.712;9.082;2023-02-21T05:54:56;97551.34;;;0.63;99.45
6668;BME280;3370;47.712;9.082;2023-02-21T05:57:22;97558.94;;;0.59;100.00
6668;BME280;3370;47.712;9.082;2023-02-21T05:59:48;97562.28;;;0.57;100.00
6668;BME280;3370;47.712;9.082;2023-02-21T06:02:14;97558.94;;;0.65;100.00
6668;BME280;3370;47.712;9.082;2023-02-21T06:04:40;97562.31;;;0.64;99.94
6668;BME280;3370;47.712;9.082;2023-02-21T06:07:06;97557.22;;;0.48;99.57
6668;BME280;3370;47.712;9.082;2023-02-21T06:09:32;97557.19;;;0.47;99.80
6668;BME280;3370;47.712;9.082;2023-02-21T06:11:58;97563.13;;;0.52;99.11
6668;BME280;3370;47.712;9.082;2023-02-21T06:14:24;97561.44;;;0.54;99.20
6668;BME280;3370;47.712;9.082;2023-02-21T06:16:51;97561.44;;;0.49;99.43
6668;BME280;3370;47.712;9.082;2023-02-21T06:19:17;97562.28;;;0.48;99.67
6668;BME280;3370;47.712;9.082;2023-02-21T06:21:44;97563.13;;;0.50;99.28
6668;BME280;3370;47.712;9.082;2023-02-21T06:24:11;97560.59;;;0.60;97.18
6668;BME280;3370;47.712;9.082;2023-02-21T06:26:37;97563.94;;;0.38;98.36
6668;BME280;3370;47.712;9.082;2023-02-21T06:29:05;97557.19;;;0.47;98.66
6668;BME280;3370;47.712;9.082;2023-02-21T06:31:31;97552.97;;;0.49;98.69
6668;BME280;3370;47.712;9.082;2023-02-21T06:33:57;97559.78;;;0.59;98.78
6668;BME280;3370;47.712;9.082;2023-02-21T06:36:26;97555.53;;;0.60;98.34
6668;BME280;3370;47.712;9.082;2023-02-21T06:38:54;97547.94;;;0.50;98.62
6668;BME280;3370;47.712;9.082;2023-02-21T06:41:29;97553.84;;;0.55;98.52
6668;BME280;3370;47.712;9.082;2023-02-21T06:43:57;97552.19;;;0.54;99.47
6668;BME280;3370;47.712;9.082;2023-02-21T06:46:27;97560.59;;;0.53;100.00
6668;BME280;3370;47.712;9.082;2023-02-21T06:48:53;97553.03;;;0.61;100.00
6668;BME280;3370;47.712;9.082;2023-02-21T06:51:19;97569.09;;;0.68;100.00
6668;BME280;3370;47.712;9.082;2023-02-21T06:53:49;97563.19;;;0.76;100.00
6668;BME280;3370;47.712;9.082;2023-02-21T06:56:15;97564.03;;;0.83;100.00
6668;BME280;3370;47.712;9.082;2023-02-21T06:58:41;97569.97;;;0.90;100.00
6668;BME280;3370;47.712;9.082;2023-02-21T07:01:07;97565.78;;;0.98;100.00
6668;BME280;3370;47.712;9.082;2023-02-21T07:03:33;97567.47;;;1.04;100.00
6668;BME280;3370;47.712;9.082;2023-02-21T07:05:59;97564.94;;;1.14;100.00
6668;BME280;3370;47.712;9.082;2023-02-21T07:08:25;97564.94;;;1.14;100.00
6668;BME280;3370;47.712;9.082;2023-02-21T07:10:51;97570.84;;;1.21;100.00
6668;BME280;3370;47.712;9.082;2023-02-21T07:13:17;97570.00;;;1.21;100.00
6668;BME280;3370;47.712;9.082;2023-02-21T07:15:42;97580.13;;;1.18;100.00
6668;BME280;3370;47.712;9.082;2023-02-21T07:18:08;97586.03;;;1.21;100.00
6668;BME280;3370;47.712;9.082;2023-02-21T07:20:34;97580.97;;;1.20;100.00
6668;BME280;3370;47.712;9.082;2023-02-21T07:23:00;97585.19;;;1.13;100.00
6668;BME280;3370;47.712;9.082;2023-02-21T07:25:25;97587.72;;;1.18;100.00
6668;BME280;3370;47.712;9.082;2023-02-21T07:27:51;97586.03;;;1.21;100.00
6668;BME280;3370;47.712;9.082;2023-02-21T07:30:17;97582.66;;;1.31;100.00
6668;BME280;3370;47.712;9.082;2023-02-21T07:32:44;97587.75;;;1.25;100.00
6668;BME280;3370;47.712;9.082;2023-02-21T07:35:11;97591.09;;;1.21;100.00
6668;BME280;3370;47.712;9.082;2023-02-21T07:37:37;97592.81;;;1.22;100.00
6668;BME280;3370;47.712;9.082;2023-02-21T07:40:04;97591.97;;;1.51;100.00
6668;BME280;3370;47.712;9.082;2023-02-21T07:42:33;97598.72;;;1.53;100.00
6668;BME280;3370;47.712;9.082;2023-02-21T07:45:00;97594.50;;;1.62;100.00
6668;BME280;3370;47.712;9.082;2023-02-21T07:47:26;97592.78;;;1.76;100.00
6668;BME280;3370;47.712;9.082;2023-02-21T07:49:53;97597.84;;;1.84;100.00
6668;BME280;3370;47.712;9.082;2023-02-21T07:52:20;97601.22;;;1.86;100.00
6668;BME280;3370;47.712;9.082;2023-02-21T07:54:46;97599.53;;;1.85;100.00
6668;BME280;3370;47.712;9.082;2023-02-21T07:57:15;97593.63;;;1.64;100.00
6668;BME280;3370;47.712;9.082;2023-02-21T07:59:41;97590.28;;;1.65;100.00
6668;BME280;3370;47.712;9.082;2023-02-21T08:02:11;97594.47;;;1.76;100.00
6668;BME280;3370;47.712;9.082;2023-02-21T08:04:37;97597.00;;;1.79;100.00
6668;BME280;3370;47.712;9.082;2023-02-21T08:07:04;97590.25;;;1.81;100.00
6668;BME280;3370;47.712;9.082;2023-02-21T08:09:30;97594.44;;;1.88;100.00
6668;BME280;3370;47.712;9.082;2023-02-21T08:11:56;97592.75;;;1.91;100.00
6668;BME280;3370;47.712;9.082;2023-02-21T08:14:22;97587.66;;;1.99;100.00
6668;BME280;3370;47.712;9.082;2023-02-21T08:16:48;97585.94;;;2.17;100.00
6668;BME280;3370;47.712;9.082;2023-02-21T08:19:13;97590.97;;;2.23;100.00
6668;BME280;3370;47.712;9.082;2023-02-21T08:21:44;97579.16;;;2.23;100.00
6668;BME280;3370;47.712;9.082;2023-02-21T08:24:11;97583.31;;;2.35;100.00
6668;BME280;3370;47.712;9.082;2023-02-21T08:26:37;97580.78;;;2.38;100.00
6668;BME280;3370;47.712;9.082;2023-02-21T08:29:04;97579.03;;;2.46;100.00
6668;BME280;3370;47.712;9.082;2023-02-21T08:31:37;97573.97;;;2.49;100.00
6668;BME280;3370;47.712;9.082;2023-02-21T08:34:04;97584.84;;;2.72;100.00
6668;BME280;3370;47.712;9.082;2023-02-21T08:36:37;97583.16;;;2.74;100.00
6668;BME280;3370;47.712;9.082;2023-02-21T08:39:04;97582.31;;;2.73;100.00
6668;BME280;3370;47.712;9.082;2023-02-21T08:41:46;97572.97;;;2.75;100.00
6668;BME280;3370;47.712;9.082;2023-02-21T08:44:17;97582.25;;;2.85;100.00
6668;BME280;3370;47.712;9.082;2023-02-21T08:46:44;97575.47;;;2.84;100.00
6668;BME280;3370;47.712;9.082;2023-02-21T08:49:10;97574.56;;;2.95;100.00
6668;BME280;3370;47.712;9.082;2023-02-21T08:51:36;97573.69;;;3.02;100.00
6668;BME280;3370;47.712;9.082;2023-02-21T08:54:02;97565.16;;;3.12;100.00
6668;BME280;3370;47.712;9.082;2023-02-21T08:56:29;97574.34;;;3.29;99.44
6668;BME280;3370;47.712;9.082;2023-02-21T08:58:55;97568.38;;;3.33;98.96
6668;BME280;3370;47.712;9.082;2023-02-21T09:01:23;97564.88;;;3.46;98.76
6668;BME280;3370;47.712;9.082;2023-02-21T09:03:49;97570.72;;;3.57;98.98
6668;BME280;3370;47.712;9.082;2023-02-21T09:06:16;97559.66;;;3.63;97.62
6668;BME280;3370;47.712;9.082;2023-02-21T09:08:42;97559.41;;;3.86;96.08
6668;BME280;3370;47.712;9.082;2023-02-21T09:11:08;97557.63;;;3.97;98.36
6668;BME280;3370;47.712;9.082;2023-02-21T09:13:34;97561.03;;;3.93;96.54
6668;BME280;3370;47.712;9.082;2023-02-21T09:16:02;97566.06;;;3.99;96.52
6668;BME280;3370;47.712;9.082;2023-02-21T09:18:29;97561.78;;;4.05;94.38
6668;BME280;3370;47.712;9.082;2023-02-21T09:20:56;97552.38;;;4.10;94.44
6668;BME280;3370;47.712;9.082;2023-02-21T09:23:24;97550.50;;;4.24;94.37
6668;BME280;3370;47.712;9.082;2023-02-21T09:25:50;97558.88;;;4.35;93.88
6668;BME280;3370;47.712;9.082;2023-02-21T09:28:17;97555.41;;;4.43;92.70
6668;BME280;3370;47.712;9.082;2023-02-21T09:30:44;97552.75;;;4.49;91.83
6668;BME280;3370;47.712;9.082;2023-02-21T09:33:10;97558.56;;;4.58;90.78
6668;BME280;3370;47.712;9.082;2023-02-21T09:35:36;97551.56;;;4.74;90.57
6668;BME280;3370;47.712;9.082;2023-02-21T09:38:05;97544.63;;;4.86;85.27
6668;BME280;3370;47.712;9.082;2023-02-21T09:40:59;97538.72;;;4.82;83.03
6668;BME280;3370;47.712;9.082;2023-02-21T09:43:55;97538.47;;;5.01;84.58
6668;BME280;3370;47.712;9.082;2023-02-21T09:46:41;97528.88;;;5.16;84.25
6668;BME280;3370;47.712;9.082;2023-02-21T09:51:43;97523.53;;;5.32;80.26
6668;BME280;3370;47.712;9.082;2023-02-21T09:54:42;97518.25;;;5.43;81.31
6668;BME280;3370;47.712;9.082;2023-02-21T09:57:14;97514.72;;;5.51;80.00
6668;BME280;3370;47.712;9.082;2023-02-21T09:59:40;97517.91;;;5.63;78.44
6668;BME280;3370;47.712;9.082;2023-02-21T10:05:21;97514.44;;;5.65;79.25
6668;BME280;3370;47.712;9.082;2023-02-21T10:14:05;97499.78;;;6.22;79.44
6668;BME280;3370;47.712;9.082;2023-02-21T10:19:38;97498.41;;;6.47;78.34
6668;BME280;3370;47.712;9.082;2023-02-21T10:22:22;97502.56;;;6.53;78.83
6668;BME280;3370;47.712;9.082;2023-02-21T10:24:50;97491.56;;;6.87;77.94
6668;BME280;3370;47.712;9.082;2023-02-21T10:27:23;97492.69;;;7.13;79.12
6668;BME280;3370;47.712;9.082;2023-02-21T10:30:09;97496.06;;;7.13;76.68
6668;BME280;3370;47.712;9.082;2023-02-21T10:32:36;97483.66;;;7.32;76.62
6668;BME280;3370;47.712;9.082;2023-02-21T10:35:03;97487.00;;;7.34;77.84
6668;BME280;3370;47.712;9.082;2023-02-21T10:37:36;97484.00;;;7.53;78.57
6668;BME280;3370;47.712;9.082;2023-02-21T10:40:51;97484.56;;;7.64;77.19
6668;BME280;3370;47.712;9.082;2023-02-21T10:46:39;97474.94;;;7.72;77.23
6668;BME280;3370;47.712;9.082;2023-02-21T10:49:28;97476.41;;;7.81;75.95
6668;BME280;3370;47.712;9.082;2023-02-21T10:52:11;97469.84;;;8.03;74.29
6668;BME280;3370;47.712;9.082;2023-02-21T10:54:38;97466.59;;;7.97;74.14
6668;BME280;3370;47.712;9.082;2023-02-21T10:57:10;97463.47;;;7.87;74.78
6668;BME280;3370;47.712;9.082;2023-02-21T10:59:42;97463.44;;;8.18;74.50
6668;BME280;3370;47.712;9.082;2023-02-21T11:05:11;97453.66;;;8.31;73.03
6668;BME280;3370;47.712;9.082;2023-02-21T11:08:04;97449.56;;;8.55;72.44
6668;BME280;3370;47.712;9.082;2023-02-21T11:10:39;97443.38;;;8.89;70.82
6668;BME280;3370;47.712;9.082;2023-02-21T11:13:22;97446.03;;;8.86;70.74
6668;BME280;3370;47.712;9.082;2023-02-21T11:16:11;97435.31;;;9.01;71.36
6668;BME280;3370;47.712;9.082;2023-02-21T11:18:40;97429.72;;;9.40;69.72
6668;BME280;3370;47.712;9.082;2023-02-21T11:21:16;97433.59;;;10.01;66.24
6668;BME280;3370;47.712;9.082;2023-02-21T11:23:54;97417.59;;;11.25;62.22
6668;BME280;3370;47.712;9.082;2023-02-21T11:26:35;97414.94;;;12.26;59.03
6668;BME280;3370;47.712;9.082;2023-02-21T11:29:11;97410.16;;;12.92;55.39
6668;BME280;3370;47.712;9.082;2023-02-21T11:31:38;97404.41;;;13.39;54.78
6668;BME280;3370;47.712;9.082;2023-02-21T11:34:08;97398.56;;;14.18;52.68
6668;BME280;3370;47.712;9.082;2023-02-21T11:36:39;97397.88;;;14.46;51.52
6668;BME280;3370;47.712;9.082;2023-02-21T11:39:25;97389.47;;;15.78;48.79
6668;BME280;3370;47.712;9.082;2023-02-21T11:41:58;97393.13;;;16.32;47.07
6668;BME280;3370;47.712;9.082;2023-02-21T11:44:38;97385.09;;;16.49;46.93
6668;BME280;3370;47.712;9.082;2023-02-21T11:47:28;97380.38;;;16.56;46.26
6668;BME280;3370;47.712;9.082;2023-02-21T11:50:35;97367.50;;;16.94;45.59
6668;BME280;3370;47.712;9.082;2023-02-21T11:53:33;97373.72;;;17.44;43.53
6668;BME280;3370;47.712;9.082;2023-02-21T11:59:32;97345.13;;;19.04;39.42
6668;BME280;3370;47.712;9.082;2023-02-21T12:05:08;97330.28;;;19.96;38.32
6668;BME280;3370;47.712;9.082;2023-02-21T12:10:58;97326.13;;;19.71;38.67
6668;BME280;3370;47.712;9.082;2023-02-21T12:14:00;97318.00;;;20.19;36.45
6668;BME280;3370;47.712;9.082;2023-02-21T12:20:41;97302.78;;;20.68;35.84
6668;BME280;3370;47.712;9.082;2023-02-21T12:23:13;97301.53;;;20.83;35.29
6668;BME280;3370;47.712;9.082;2023-02-21T12:34:26;97280.59;;;21.56;33.00
6668;BME280;3370;47.712;9.082;2023-02-21T12:40:08;97256.84;;;23.15;30.79
6668;BME280;3370;47.712;9.082;2023-02-21T12:46:00;97250.28;;;24.48;29.18
6668;BME280;3370;47.712;9.082;2023-02-21T12:51:36;97235.88;;;23.71;30.38
6668;BME280;3370;47.712;9.082;2023-02-21T12:54:44;97229.00;;;23.70;30.70
6668;BME280;3370;47.712;9.082;2023-02-21T12:57:45;97225.75;;;22.15;32.82
6668;BME280;3370;47.712;9.082;2023-02-21T13:00:25;97218.88;;;22.53;32.59
6668;BME280;3370;47.712;9.082;2023-02-21T13:06:17;97208.25;;;22.54;32.70
6668;BME280;3370;47.712;9.082;2023-02-21T13:12:10;97195.78;;;23.51;31.71
6668;BME280;3370;47.712;9.082;2023-02-21T13:14:42;97187.88;;;23.61;30.60
6668;BME280;3370;47.712;9.082;2023-02-21T13:17:12;97186.84;;;24.43;30.33
6668;BME280;3370;47.712;9.082;2023-02-21T13:22:41;97174.13;;;25.09;28.05
6668;BME280;3370;47.712;9.082;2023-02-21T13:26:14;97176.16;;;23.83;30.47
6668;BME280;3370;47.712;9.082;2023-02-21T13:28:21;97169.91;;;22.63;32.83
6668;BME280;3370;47.712;9.082;2023-02-21T13:31:00;97171.41;;;21.49;32.96
6668;BME280;3370;47.712;9.082;2023-02-21T13:33:43;97162.84;;;21.47;33.88
6668;BME280;3370;47.712;9.082;2023-02-21T13:36:28;97158.50;;;20.95;33.23
6668;BME280;3370;47.712;9.082;2023-02-21T13:39:16;97162.59;;;20.78;35.47
6668;BME280;3370;47.712;9.082;2023-02-21T13:41:54;97147.22;;;20.85;35.43
6668;BME280;3370;47.712;9.082;2023-02-21T13:44:43;97149.97;;;20.41;35.68
6668;BME280;3370;47.712;9.082;2023-02-21T13:47:12;97141.91;;;20.23;36.42
6668;BME280;3370;47.712;9.082;2023-02-21T13:49:56;97134.16;;;19.80;36.38
6668;BME280;3370;47.712;9.082;2023-02-21T13:52:35;97132.53;;;19.56;38.05
6668;BME280;3370;47.712;9.082;2023-02-21T13:57:44;97133.09;;;19.05;38.83
6668;BME280;3370;47.712;9.082;2023-02-21T14:00:44;97122.44;;;18.96;38.54
6668;BME280;3370;47.712;9.082;2023-02-21T14:13:38;97108.47;;;18.98;39.19
6668;BME280;3370;47.712;9.082;2023-02-21T14:18:50;97101.47;;;18.53;38.56
6668;BME280;3370;47.712;9.082;2023-02-21T14:24:26;97084.53;;;18.58;38.93
6668;BME280;3370;47.712;9.082;2023-02-21T14:29:42;97080.50;;;18.32;39.23
6668;BME280;3370;47.712;9.082;2023-02-21T14:34:52;97076.19;;;17.97;39.18
6668;BME280;3370;47.712;9.082;2023-02-21T14:37:43;97078.28;;;17.92;39.70
6668;BME280;3370;47.712;9.082;2023-02-21T14:54:42;97060.22;;;17.66;39.16
6668;BME280;3370;47.712;9.082;2023-02-21T15:03:29;97042.72;;;17.68;39.57
6668;BME280;3370;47.712;9.082;2023-02-21T15:06:08;97033.44;;;17.53;39.13
6668;BME280;3370;47.712;9.082;2023-02-21T15:08:46;97033.22;;;17.56;40.49
6668;BME280;3370;47.712;9.082;2023-02-21T15:11:31;97036.81;;;17.77;39.43
6668;BME280;3370;47.712;9.082;2023-02-21T15:14:25;97036.63;;;17.80;40.11
6668;BME280;3370;47.712;9.082;2023-02-21T15:16:56;97029.09;;;17.89;39.98
6668;BME280;3370;47.712;9.082;2023-02-21T15:19:27;97029.75;;;17.79;39.58
6668;BME280;3370;47.712;9.082;2023-02-21T15:22:15;97024.75;;;17.76;40.97
6668;BME280;3370;47.712;9.082;2023-02-21T15:25:11;97023.72;;;17.79;41.39
6668;BME280;3370;47.712;9.082;2023-02-21T15:27:54;97015.50;;;17.61;40.38
6668;BME280;3370;47.712;9.082;2023-02-21T15:30:38;97010.97;;;17.40;40.68
6668;BME280;3370;47.712;9.082;2023-02-21T15:33:15;97009.63;;;17.35;41.14
6668;BME280;3370;47.712;9.082;2023-02-21T15:35:57;97001.44;;;17.04;41.42
6668;BME280;3370;47.712;9.082;2023-02-21T15:39:03;97002.34;;;16.92;41.60
6668;BME280;3370;47.712;9.082;2023-02-21T15:41:43;96999.34;;;16.85;42.02
6668;BME280;3370;47.712;9.082;2023-02-21T15:44:25;96998.03;;;16.66;42.82
6668;BME280;3370;47.712;9.082;2023-02-21T15:47:23;96994.94;;;16.61;41.60
6668;BME280;3370;47.712;9.082;2023-02-21T15:50:28;96995.88;;;16.47;42.77
6668;BME280;3370;47.712;9.082;2023-02-21T15:55:41;96993.69;;;16.54;42.43
6668;BME280;3370;47.712;9.082;2023-02-21T15:58:19;96995.38;;;16.55;42.18
6668;BME280;3370;47.712;9.082;2023-02-21T16:00:48;96990.91;;;16.57;42.81
6668;BME280;3370;47.712;9.082;2023-02-21T16:03:40;96992.78;;;16.55;42.85
6668;BME280;3370;47.712;9.082;2023-02-21T16:09:03;96985.63;;;16.33;43.93
6668;BME280;3370;47.712;9.082;2023-02-21T16:11:49;96976.94;;;16.21;43.54
6668;BME280;3370;47.712;9.082;2023-02-21T16:14:44;96977.97;;;16.06;43.91
6668;BME280;3370;47.712;9.082;2023-02-21T16:17:38;96973.63;;;15.81;44.71
6668;BME280;3370;47.712;9.082;2023-02-21T16:22:39;96976.50;;;15.50;45.25
6668;BME280;3370;47.712;9.082;2023-02-21T16:27:39;96978.75;;;15.02;47.48
6668;BME280;3370;47.712;9.082;2023-02-21T16:30:11;96981.22;;;14.76;48.51
6668;BME280;3370;47.712;9.082;2023-02-21T16:32:37;96980.63;;;14.59;48.91
6668;BME280;3370;47.712;9.082;2023-02-21T16:35:04;96983.66;;;14.51;49.22
6668;BME280;3370;47.712;9.082;2023-02-21T16:37:30;96978.13;;;14.43;49.22
6668;BME280;3370;47.712;9.082;2023-02-21T16:39:57;96975.47;;;14.30;49.76